sensor_id;sensor_type;location;lat;lon;timestamp;P1;durP1;ratioP1;P2;durP2;ratioP2
62110;SDS011;48102;47.526;19.072;2023-06-14T03:42:14;6.97;;;3.87;;
62110;SDS011;48102;47.526;19.072;2023-06-14T03:45:18;9.85;;;3.75;;
62110;SDS011;48102;47.526;19.072;2023-06-14T03:48:22;4.85;;;3.10;;
62110;SDS011;48102;47.526;19.072;2023-06-14T03:54:28;6.07;;;3.78;;
62110;SDS011;48102;47.526;19.072;2023-06-14T03:57:52;5.75;;;4.20;;
62110;SDS011;48102;47.526;19.072;2023-06-14T04:00:55;7.35;;;3.75;;
62110;SDS011;48102;47.526;19.072;2023-06-14T04:03:59;4.62;;;3.62;;
62110;SDS011;48102;47.526;19.072;2023-06-14T04:10:06;5.05;;;3.67;;
62110;SDS011;48102;47.526;19.072;2023-06-14T04:13:10;7.05;;;2.95;;
62110;SDS011;48102;47.526;19.072;2023-06-14T04:16:16;6.60;;;3.65;;
62110;SDS011;48102;47.526;19.072;2023-06-14T04:19:19;6.50;;;4.20;;
62110;SDS011;48102;47.526;19.072;2023-06-14T04:22:22;7.97;;;3.58;;
62110;SDS011;48102;47.526;19.072;2023-06-14T04:25:25;5.32;;;3.65;;
62110;SDS011;48102;47.526;19.072;2023-06-14T04:28:30;6.87;;;3.83;;
62110;SDS011;48102;47.526;19.072;2023-06-14T04:31:33;4.85;;;3.45;;
62110;SDS011;48102;47.526;19.072;2023-06-14T04:34:36;6.43;;;4.15;;
62110;SDS011;48102;47.526;19.072;2023-06-14T04:37:40;5.00;;;3.65;;
62110;SDS011;48102;47.526;19.072;2023-06-14T04:40:44;5.75;;;3.40;;
62110;SDS011;48102;47.526;19.072;2023-06-14T04:43:49;8.32;;;3.95;;
62110;SDS011;48102;47.526;19.072;2023-06-14T04:46:52;4.93;;;3.58;;
62110;SDS011;48102;47.526;19.072;2023-06-14T04:49:56;4.45;;;3.45;;
62110;SDS011;48102;47.526;19.072;2023-06-14T04:53:00;5.35;;;3.83;;
62110;SDS011;48102;47.526;19.072;2023-06-14T04:56:03;5.50;;;3.78;;
62110;SDS011;48102;47.526;19.072;2023-06-14T04:59:07;5.55;;;3.87;;
62110;SDS011;48102;47.526;19.072;2023-06-14T05:02:11;4.60;;;3.00;;
62110;SDS011;48102;47.526;19.072;2023-06-14T05:05:14;6.95;;;3.70;;
62110;SDS011;48102;47.526;19.072;2023-06-14T05:08:20;5.05;;;3.78;;
62110;SDS011;48102;47.526;19.072;2023-06-14T05:11:26;7.37;;;4.53;;
62110;SDS011;48102;47.526;19.072;2023-06-14T05:14:29;8.25;;;4.25;;
62110;SDS011;48102;47.526;19.072;2023-06-14T05:17:32;6.20;;;3.83;;
62110;SDS011;48102;47.526;19.072;2023-06-14T05:20:39;5.68;;;3.87;;
62110;SDS011;48102;47.526;19.072;2023-06-14T05:23:44;7.45;;;3.58;;
62110;SDS011;48102;47.526;19.072;2023-06-14T05:26:47;7.87;;;3.75;;
62110;SDS011;48102;47.526;19.072;2023-06-14T05:29:51;6.60;;;3.78;;
62110;SDS011;48102;47.526;19.072;2023-06-14T05:32:57;5.22;;;3.83;;
62110;SDS011;48102;47.526;19.072;2023-06-14T05:36:01;6.25;;;3.62;;
62110;SDS011;48102;47.526;19.072;2023-06-14T05:39:03;4.32;;;3.22;;
62110;SDS011;48102;47.526;19.072;2023-06-14T05:42:08;5.32;;;3.85;;
62110;SDS011;48102;47.526;19.072;2023-06-14T05:45:13;5.45;;;3.53;;
62110;SDS011;48102;47.526;19.072;2023-06-14T05:48:20;5.05;;;3.70;;
62110;SDS011;48102;47.526;19.072;2023-06-14T05:51:23;5.15;;;3.60;;
62110;SDS011;48102;47.526;19.072;2023-06-14T05:54:28;5.35;;;3.45;;
62110;SDS011;48102;47.526;19.072;2023-06-14T05:57:30;5.57;;;3.28;;
62110;SDS011;48102;47.526;19.072;2023-06-14T06:03:36;6.13;;;3.27;;
62110;SDS011;48102;47.526;19.072;2023-06-14T06:06:39;5.55;;;3.10;;
62110;SDS011;48102;47.526;19.072;2023-06-14T06:12:45;3.75;;;2.90;;
62110;SDS011;48102;47.526;19.072;2023-06-14T06:15:49;4.80;;;3.25;;
62110;SDS011;48102;47.526;19.072;2023-06-14T06:21:55;4.50;;;3.00;;
62110;SDS011;48102;47.526;19.072;2023-06-14T06:24:58;4.53;;;2.85;;
62110;SDS011;48102;47.526;19.072;2023-06-14T06:28:01;6.12;;;3.85;;
62110;SDS011;48102;47.526;19.072;2023-06-14T06:37:10;6.85;;;3.28;;
62110;SDS011;48102;47.526;19.072;2023-06-14T06:40:13;4.70;;;3.05;;
62110;SDS011;48102;47.526;19.072;2023-06-14T06:43:16;7.55;;;3.75;;
62110;SDS011;48102;47.526;19.072;2023-06-14T06:46:20;4.65;;;3.53;;
62110;SDS011;48102;47.526;19.072;2023-06-14T06:49:23;5.30;;;3.53;;
62110;SDS011;48102;47.526;19.072;2023-06-14T06:52:26;10.10;;;4.00;;
62110;SDS011;48102;47.526;19.072;2023-06-14T06:55:29;6.45;;;3.95;;
62110;SDS011;48102;47.526;19.072;2023-06-14T06:58:32;5.90;;;3.47;;
62110;SDS011;48102;47.526;19.072;2023-06-14T07:01:35;4.82;;;2.80;;
62110;SDS011;48102;47.526;19.072;2023-06-14T07:04:39;5.35;;;3.45;;
62110;SDS011;48102;47.526;19.072;2023-06-14T07:07:42;4.80;;;3.30;;
62110;SDS011;48102;47.526;19.072;2023-06-14T07:13:47;7.90;;;3.40;;
62110;SDS011;48102;47.526;19.072;2023-06-14T07:16:50;4.90;;;3.20;;
62110;SDS011;48102;47.526;19.072;2023-06-14T07:22:56;8.25;;;3.10;;
62110;SDS011;48102;47.526;19.072;2023-06-14T07:25:59;6.22;;;3.15;;
62110;SDS011;48102;47.526;19.072;2023-06-14T07:29:02;7.37;;;3.20;;
62110;SDS011;48102;47.526;19.072;2023-06-14T07:32:05;7.47;;;3.00;;
62110;SDS011;48102;47.526;19.072;2023-06-14T07:35:09;3.50;;;2.40;;
62110;SDS011;48102;47.526;19.072;2023-06-14T07:38:12;4.95;;;2.35;;
62110;SDS011;48102;47.526;19.072;2023-06-14T07:41:18;4.32;;;2.45;;
62110;SDS011;48102;47.526;19.072;2023-06-14T07:44:20;3.28;;;2.53;;
62110;SDS011;48102;47.526;19.072;2023-06-14T07:47:23;4.93;;;2.40;;
62110;SDS011;48102;47.526;19.072;2023-06-14T07:50:26;4.70;;;2.45;;
62110;SDS011;48102;47.526;19.072;2023-06-14T07:53:31;5.10;;;2.90;;
62110;SDS011;48102;47.526;19.072;2023-06-14T07:56:36;4.47;;;3.25;;
62110;SDS011;48102;47.526;19.072;2023-06-14T07:59:41;4.55;;;2.78;;
62110;SDS011;48102;47.526;19.072;2023-06-14T08:02:44;4.57;;;2.90;;
62110;SDS011;48102;47.526;19.072;2023-06-14T08:05:48;6.25;;;2.37;;
62110;SDS011;48102;47.526;19.072;2023-06-14T08:11:54;6.43;;;2.80;;
62110;SDS011;48102;47.526;19.072;2023-06-14T08:14:57;5.62;;;2.70;;
62110;SDS011;48102;47.526;19.072;2023-06-14T08:18:15;7.72;;;2.95;;
62110;SDS011;48102;47.526;19.072;2023-06-14T08:21:18;7.47;;;3.37;;
62110;SDS011;48102;47.526;19.072;2023-06-14T08:24:21;7.97;;;2.67;;
62110;SDS011;48102;47.526;19.072;2023-06-14T08:27:29;4.57;;;2.55;;
62110;SDS011;48102;47.526;19.072;2023-06-14T08:30:35;8.63;;;3.10;;
62110;SDS011;48102;47.526;19.072;2023-06-14T08:33:39;4.72;;;3.15;;
62110;SDS011;48102;47.526;19.072;2023-06-14T08:36:46;7.80;;;3.35;;
62110;SDS011;48102;47.526;19.072;2023-06-14T08:42:54;6.45;;;2.87;;
62110;SDS011;48102;47.526;19.072;2023-06-14T08:46:01;5.82;;;3.37;;
62110;SDS011;48102;47.526;19.072;2023-06-14T08:49:07;6.00;;;2.75;;
62110;SDS011;48102;47.526;19.072;2023-06-14T08:52:13;3.50;;;2.50;;
62110;SDS011;48102;47.526;19.072;2023-06-14T08:55:22;4.62;;;2.42;;
62110;SDS011;48102;47.526;19.072;2023-06-14T08:58:29;4.80;;;2.67;;
62110;SDS011;48102;47.526;19.072;2023-06-14T09:01:34;3.33;;;2.28;;
62110;SDS011;48102;47.526;19.072;2023-06-14T09:04:37;9.25;;;5.05;;
62110;SDS011;48102;47.526;19.072;2023-06-14T09:07:40;8.38;;;2.58;;
62110;SDS011;48102;47.526;19.072;2023-06-14T09:10:44;7.90;;;2.70;;
62110;SDS011;48102;47.526;19.072;2023-06-14T09:13:48;4.68;;;2.40;;
62110;SDS011;48102;47.526;19.072;2023-06-14T09:16:52;3.10;;;2.17;;
62110;SDS011;48102;47.526;19.072;2023-06-14T09:19:56;5.75;;;1.98;;
62110;SDS011;48102;47.526;19.072;2023-06-14T09:23:00;7.85;;;2.78;;
62110;SDS011;48102;47.526;19.072;2023-06-14T09:26:10;5.68;;;2.65;;
62110;SDS011;48102;47.526;19.072;2023-06-14T09:29:13;5.97;;;2.28;;
62110;SDS011;48102;47.526;19.072;2023-06-14T09:32:19;4.78;;;2.08;;
62110;SDS011;48102;47.526;19.072;2023-06-14T09:35:23;4.62;;;2.28;;
62110;SDS011;48102;47.526;19.072;2023-06-14T09:38:27;5.78;;;2.37;;
62110;SDS011;48102;47.526;19.072;2023-06-14T09:44:34;3.75;;;2.12;;
62110;SDS011;48102;47.526;19.072;2023-06-14T09:47:37;7.28;;;1.98;;
62110;SDS011;48102;47.526;19.072;2023-06-14T09:50:55;5.75;;;2.28;;
62110;SDS011;48102;47.526;19.072;2023-06-14T09:54:01;3.22;;;2.03;;
62110;SDS011;48102;47.526;19.072;2023-06-14T09:57:07;2.67;;;2.00;;
62110;SDS011;48102;47.526;19.072;2023-06-14T10:00:12;4.20;;;2.30;;
62110;SDS011;48102;47.526;19.072;2023-06-14T10:03:24;9.48;;;1.92;;
62110;SDS011;48102;47.526;19.072;2023-06-14T10:06:45;2.90;;;1.77;;
62110;SDS011;48102;47.526;19.072;2023-06-14T10:09:52;2.05;;;1.33;;
62110;SDS011;48102;47.526;19.072;2023-06-14T10:12:55;3.83;;;2.08;;
62110;SDS011;48102;47.526;19.072;2023-06-14T10:16:07;6.75;;;1.92;;
62110;SDS011;48102;47.526;19.072;2023-06-14T10:22:41;1.90;;;1.60;;
62110;SDS011;48102;47.526;19.072;2023-06-14T10:25:50;2.05;;;1.40;;
62110;SDS011;48102;47.526;19.072;2023-06-14T10:29:00;3.55;;;1.73;;
62110;SDS011;48102;47.526;19.072;2023-06-14T10:32:12;2.67;;;1.50;;
62110;SDS011;48102;47.526;19.072;2023-06-14T10:35:15;3.35;;;1.98;;
62110;SDS011;48102;47.526;19.072;2023-06-14T10:38:19;2.22;;;1.65;;
62110;SDS011;48102;47.526;19.072;2023-06-14T10:41:38;5.07;;;1.70;;
62110;SDS011;48102;47.526;19.072;2023-06-14T10:44:55;1.65;;;1.50;;
62110;SDS011;48102;47.526;19.072;2023-06-14T10:47:59;3.67;;;2.00;;
62110;SDS011;48102;47.526;19.072;2023-06-14T10:51:04;2.05;;;1.42;;
62110;SDS011;48102;47.526;19.072;2023-06-14T10:54:08;2.28;;;1.67;;
62110;SDS011;48102;47.526;19.072;2023-06-14T10:57:14;2.50;;;1.40;;
62110;SDS011;48102;47.526;19.072;2023-06-14T11:00:24;2.92;;;1.80;;
62110;SDS011;48102;47.526;19.072;2023-06-14T11:06:53;2.55;;;1.75;;
62110;SDS011;48102;47.526;19.072;2023-06-14T11:10:39;4.80;;;1.95;;
62110;SDS011;48102;47.526;19.072;2023-06-14T11:13:43;4.85;;;2.05;;
62110;SDS011;48102;47.526;19.072;2023-06-14T11:16:48;1.80;;;1.50;;
62110;SDS011;48102;47.526;19.072;2023-06-14T11:20:07;1.52;;;1.30;;
62110;SDS011;48102;47.526;19.072;2023-06-14T11:23:20;3.92;;;1.58;;
62110;SDS011;48102;47.526;19.072;2023-06-14T11:26:33;4.68;;;1.67;;
62110;SDS011;48102;47.526;19.072;2023-06-14T11:29:37;2.08;;;1.58;;
62110;SDS011;48102;47.526;19.072;2023-06-14T11:32:40;2.17;;;1.40;;
62110;SDS011;48102;47.526;19.072;2023-06-14T11:35:43;2.15;;;1.73;;
62110;SDS011;48102;47.526;19.072;2023-06-14T11:38:47;3.67;;;1.73;;
62110;SDS011;48102;47.526;19.072;2023-06-14T11:41:49;2.70;;;1.70;;
62110;SDS011;48102;47.526;19.072;2023-06-14T11:44:56;5.60;;;1.90;;
62110;SDS011;48102;47.526;19.072;2023-06-14T11:48:10;3.78;;;1.95;;
62110;SDS011;48102;47.526;19.072;2023-06-14T11:51:13;3.85;;;2.00;;
62110;SDS011;48102;47.526;19.072;2023-06-14T11:54:16;2.67;;;1.90;;
62110;SDS011;48102;47.526;19.072;2023-06-14T11:57:22;3.30;;;1.65;;
62110;SDS011;48102;47.526;19.072;2023-06-14T12:00:25;3.10;;;1.67;;
62110;SDS011;48102;47.526;19.072;2023-06-14T12:03:30;4.03;;;2.00;;
62110;SDS011;48102;47.526;19.072;2023-06-14T12:06:34;2.95;;;1.45;;
62110;SDS011;48102;47.526;19.072;2023-06-14T12:10:03;4.28;;;2.00;;
62110;SDS011;48102;47.526;19.072;2023-06-14T12:13:10;3.20;;;1.90;;
62110;SDS011;48102;47.526;19.072;2023-06-14T12:16:13;2.42;;;1.80;;
62110;SDS011;48102;47.526;19.072;2023-06-14T12:19:16;4.75;;;1.60;;
62110;SDS011;48102;47.526;19.072;2023-06-14T12:22:20;2.80;;;1.62;;
62110;SDS011;48102;47.526;19.072;2023-06-14T12:25:27;4.15;;;1.85;;
62110;SDS011;48102;47.526;19.072;2023-06-14T12:28:33;3.22;;;1.67;;
62110;SDS011;48102;47.526;19.072;2023-06-14T12:31:36;3.30;;;1.92;;
62110;SDS011;48102;47.526;19.072;2023-06-14T12:34:39;4.43;;;1.65;;
62110;SDS011;48102;47.526;19.072;2023-06-14T12:37:42;3.50;;;2.20;;
62110;SDS011;48102;47.526;19.072;2023-06-14T12:40:45;1.42;;;1.33;;
62110;SDS011;48102;47.526;19.072;2023-06-14T12:43:49;1.67;;;1.50;;
62110;SDS011;48102;47.526;19.072;2023-06-14T12:46:52;2.80;;;1.70;;
62110;SDS011;48102;47.526;19.072;2023-06-14T12:49:57;2.53;;;1.70;;
62110;SDS011;48102;47.526;19.072;2023-06-14T12:53:00;2.00;;;1.52;;
62110;SDS011;48102;47.526;19.072;2023-06-14T12:56:03;1.80;;;1.42;;
62110;SDS011;48102;47.526;19.072;2023-06-14T12:59:06;2.78;;;1.62;;
62110;SDS011;48102;47.526;19.072;2023-06-14T13:02:13;4.05;;;1.45;;
62110;SDS011;48102;47.526;19.072;2023-06-14T13:05:18;4.40;;;1.55;;
62110;SDS011;48102;47.526;19.072;2023-06-14T13:08:20;2.37;;;1.50;;
62110;SDS011;48102;47.526;19.072;2023-06-14T13:11:27;2.10;;;1.45;;
62110;SDS011;48102;47.526;19.072;2023-06-14T13:14:29;2.33;;;1.62;;
62110;SDS011;48102;47.526;19.072;2023-06-14T13:17:33;1.80;;;1.52;;
62110;SDS011;48102;47.526;19.072;2023-06-14T13:20:40;2.40;;;1.37;;
62110;SDS011;48102;47.526;19.072;2023-06-14T13:23:44;3.85;;;1.73;;
62110;SDS011;48102;47.526;19.072;2023-06-14T13:26:47;2.60;;;1.60;;
62110;SDS011;48102;47.526;19.072;2023-06-14T13:29:49;2.50;;;1.67;;
62110;SDS011;48102;47.526;19.072;2023-06-14T13:32:52;2.92;;;1.70;;
62110;SDS011;48102;47.526;19.072;2023-06-14T13:35:55;3.62;;;1.50;;
62110;SDS011;48102;47.526;19.072;2023-06-14T13:38:58;1.70;;;1.50;;
62110;SDS011;48102;47.526;19.072;2023-06-14T13:42:01;2.08;;;1.50;;
62110;SDS011;48102;47.526;19.072;2023-06-14T13:45:05;2.37;;;1.33;;
62110;SDS011;48102;47.526;19.072;2023-06-14T13:48:08;14.00;;;1.95;;
62110;SDS011;48102;47.526;19.072;2023-06-14T13:51:11;5.05;;;1.60;;
62110;SDS011;48102;47.526;19.072;2023-06-14T13:54:18;1.95;;;1.35;;
62110;SDS011;48102;47.526;19.072;2023-06-14T13:57:22;2.25;;;1.65;;
62110;SDS011;48102;47.526;19.072;2023-06-14T14:00:26;4.78;;;1.30;;
62110;SDS011;48102;47.526;19.072;2023-06-14T14:03:29;16.08;;;2.47;;
62110;SDS011;48102;47.526;19.072;2023-06-14T14:06:31;5.70;;;1.80;;
62110;SDS011;48102;47.526;19.072;2023-06-14T14:09:34;2.03;;;1.27;;
62110;SDS011;48102;47.526;19.072;2023-06-14T14:12:37;5.15;;;1.65;;
62110;SDS011;48102;47.526;19.072;2023-06-14T14:15:43;3.17;;;1.70;;
62110;SDS011;48102;47.526;19.072;2023-06-14T14:18:46;3.17;;;1.70;;
62110;SDS011;48102;47.526;19.072;2023-06-14T14:21:49;3.08;;;1.58;;
62110;SDS011;48102;47.526;19.072;2023-06-14T14:24:52;1.75;;;1.50;;
62110;SDS011;48102;47.526;19.072;2023-06-14T14:27:55;2.05;;;1.20;;
62110;SDS011;48102;47.526;19.072;2023-06-14T14:30:58;2.60;;;1.40;;
62110;SDS011;48102;47.526;19.072;2023-06-14T14:34:02;2.33;;;1.58;;
62110;SDS011;48102;47.526;19.072;2023-06-14T14:37:04;4.12;;;1.42;;
62110;SDS011;48102;47.526;19.072;2023-06-14T14:40:08;2.30;;;1.55;;
62110;SDS011;48102;47.526;19.072;2023-06-14T14:43:11;2.78;;;1.60;;
62110;SDS011;48102;47.526;19.072;2023-06-14T14:46:14;1.80;;;1.40;;
62110;SDS011;48102;47.526;19.072;2023-06-14T14:49:19;2.62;;;1.37;;
62110;SDS011;48102;47.526;19.072;2023-06-14T14:52:23;1.95;;;1.50;;
62110;SDS011;48102;47.526;19.072;2023-06-14T14:55:26;2.40;;;1.40;;
62110;SDS011;48102;47.526;19.072;2023-06-14T14:58:29;1.87;;;1.30;;
62110;SDS011;48102;47.526;19.072;2023-06-14T15:01:31;1.60;;;1.33;;
62110;SDS011;48102;47.526;19.072;2023-06-14T15:04:35;1.50;;;1.35;;
62110;SDS011;48102;47.526;19.072;2023-06-14T15:07:37;1.50;;;1.35;;
62110;SDS011;48102;47.526;19.072;2023-06-14T15:10:42;1.75;;;1.50;;
62110;SDS011;48102;47.526;19.072;2023-06-14T15:13:46;3.85;;;1.37;;
62110;SDS011;48102;47.526;19.072;2023-06-14T15:16:49;4.07;;;1.50;;
62110;SDS011;48102;47.526;19.072;2023-06-14T15:19:52;2.10;;;1.48;;
62110;SDS011;48102;47.526;19.072;2023-06-14T15:22:55;2.12;;;1.50;;
62110;SDS011;48102;47.526;19.072;2023-06-14T15:26:01;4.47;;;1.42;;
62110;SDS011;48102;47.526;19.072;2023-06-14T15:29:04;2.17;;;1.80;;
62110;SDS011;48102;47.526;19.072;2023-06-14T15:32:07;2.78;;;1.80;;
62110;SDS011;48102;47.526;19.072;2023-06-14T15:35:10;1.75;;;1.60;;
62110;SDS011;48102;47.526;19.072;2023-06-14T15:38:15;3.67;;;1.75;;
62110;SDS011;48102;47.526;19.072;2023-06-14T15:41:18;4.35;;;1.58;;
62110;SDS011;48102;47.526;19.072;2023-06-14T15:44:21;1.70;;;1.42;;
62110;SDS011;48102;47.526;19.072;2023-06-14T15:47:24;1.98;;;1.52;;
62110;SDS011;48102;47.526;19.072;2023-06-14T15:50:26;3.75;;;1.80;;
62110;SDS011;48102;47.526;19.072;2023-06-14T15:53:30;2.45;;;1.40;;
62110;SDS011;48102;47.526;19.072;2023-06-14T15:56:32;2.37;;;1.37;;
62110;SDS011;48102;47.526;19.072;2023-06-14T15:59:35;7.07;;;1.73;;
